sensor_id;sensor_type;location;lat;lon;timestamp;P1;durP1;ratioP1;P2;durP2;ratioP2
10432;SDS011;5263;48.680;9.004;2022-11-20T00:01:46;4.87;;;2.90;;
10432;SDS011;5263;48.680;9.004;2022-11-20T00:04:11;2.33;;;2.23;;
10432;SDS011;5263;48.680;9.004;2022-11-20T00:06:37;2.37;;;2.13;;
10432;SDS011;5263;48.680;9.004;2022-11-20T00:09:03;2.83;;;2.53;;
10432;SDS011;5263;48.680;9.004;2022-11-20T00:11:30;4.13;;;2.33;;
10432;SDS011;5263;48.680;9.004;2022-11-20T00:13:57;2.33;;;2.10;;
10432;SDS011;5263;48.680;9.004;2022-11-20T00:16:25;4.60;;;2.43;;
10432;SDS011;5263;48.680;9.004;2022-11-20T00:18:52;4.23;;;2.53;;
10432;SDS011;5263;48.680;9.004;2022-11-20T00:21:19;2.17;;;1.70;;
10432;SDS011;5263;48.680;9.004;2022-11-20T00:23:49;2.30;;;1.70;;
10432;SDS011;5263;48.680;9.004;2022-11-20T00:26:17;1.93;;;1.73;;
10432;SDS011;5263;48.680;9.004;2022-11-20T00:28:43;2.57;;;2.30;;
10432;SDS011;5263;48.680;9.004;2022-11-20T00:31:18;1.90;;;1.50;;
10432;SDS011;5263;48.680;9.004;2022-11-20T00:33:44;2.20;;;1.63;;
10432;SDS011;5263;48.680;9.004;2022-11-20T00:36:12;2.07;;;1.87;;
10432;SDS011;5263;48.680;9.004;2022-11-20T00:38:39;1.53;;;1.43;;
10432;SDS011;5263;48.680;9.004;2022-11-20T00:41:06;1.70;;;1.60;;
10432;SDS011;5263;48.680;9.004;2022-11-20T00:43:33;2.40;;;1.50;;
10432;SDS011;5263;48.680;9.004;2022-11-20T00:46:03;2.53;;;1.17;;
10432;SDS011;5263;48.680;9.004;2022-11-20T00:48:33;1.90;;;1.60;;
10432;SDS011;5263;48.680;9.004;2022-11-20T00:51:00;1.77;;;1.40;;
10432;SDS011;5263;48.680;9.004;2022-11-20T00:53:26;1.40;;;1.17;;
10432;SDS011;5263;48.680;9.004;2022-11-20T00:56:02;4.70;;;1.50;;
10432;SDS011;5263;48.680;9.004;2022-11-20T00:58:31;1.30;;;1.17;;
10432;SDS011;5263;48.680;9.004;2022-11-20T01:00:59;1.30;;;1.20;;
10432;SDS011;5263;48.680;9.004;2022-11-20T01:03:32;2.07;;;1.40;;
10432;SDS011;5263;48.680;9.004;2022-11-20T01:06:00;2.00;;;1.37;;
10432;SDS011;5263;48.680;9.004;2022-11-20T01:08:40;2.40;;;1.20;;
10432;SDS011;5263;48.680;9.004;2022-11-20T01:11:08;1.93;;;1.40;;
10432;SDS011;5263;48.680;9.004;2022-11-20T01:13:36;2.47;;;1.30;;
10432;SDS011;5263;48.680;9.004;2022-11-20T01:16:03;5.00;;;1.70;;
10432;SDS011;5263;48.680;9.004;2022-11-20T01:18:37;3.20;;;1.10;;
10432;SDS011;5263;48.680;9.004;2022-11-20T01:21:05;1.63;;;1.53;;
10432;SDS011;5263;48.680;9.004;2022-11-20T01:23:34;2.00;;;1.30;;
10432;SDS011;5263;48.680;9.004;2022-11-20T01:26:02;1.30;;;1.20;;
10432;SDS011;5263;48.680;9.004;2022-11-20T01:28:29;2.63;;;1.10;;
10432;SDS011;5263;48.680;9.004;2022-11-20T01:30:56;1.30;;;1.20;;
10432;SDS011;5263;48.680;9.004;2022-11-20T01:33:22;1.20;;;1.10;;
10432;SDS011;5263;48.680;9.004;2022-11-20T01:35:48;4.40;;;1.30;;
10432;SDS011;5263;48.680;9.004;2022-11-20T01:38:14;1.90;;;1.43;;
10432;SDS011;5263;48.680;9.004;2022-11-20T01:40:41;3.10;;;1.57;;
10432;SDS011;5263;48.680;9.004;2022-11-20T01:43:25;3.93;;;1.73;;
10432;SDS011;5263;48.680;9.004;2022-11-20T01:46:04;2.10;;;1.97;;
10432;SDS011;5263;48.680;9.004;2022-11-20T01:54:16;1.77;;;1.13;;
10432;SDS011;5263;48.680;9.004;2022-11-20T01:56:44;3.27;;;2.00;;
10432;SDS011;5263;48.680;9.004;2022-11-20T01:59:13;3.97;;;1.80;;
10432;SDS011;5263;48.680;9.004;2022-11-20T02:01:42;2.20;;;1.80;;
10432;SDS011;5263;48.680;9.004;2022-11-20T02:04:08;5.80;;;1.77;;
10432;SDS011;5263;48.680;9.004;2022-11-20T02:06:35;2.87;;;1.33;;
10432;SDS011;5263;48.680;9.004;2022-11-20T02:09:24;1.80;;;1.20;;
10432;SDS011;5263;48.680;9.004;2022-11-20T02:11:49;3.03;;;1.53;;
10432;SDS011;5263;48.680;9.004;2022-11-20T02:14:15;1.30;;;1.20;;
10432;SDS011;5263;48.680;9.004;2022-11-20T02:16:43;1.40;;;1.30;;
10432;SDS011;5263;48.680;9.004;2022-11-20T02:19:26;2.20;;;1.37;;
10432;SDS011;5263;48.680;9.004;2022-11-20T02:22:08;1.60;;;1.50;;
10432;SDS011;5263;48.680;9.004;2022-11-20T02:24:50;1.70;;;1.40;;
10432;SDS011;5263;48.680;9.004;2022-11-20T02:27:16;2.30;;;2.10;;
10432;SDS011;5263;48.680;9.004;2022-11-20T02:29:52;2.43;;;2.20;;
10432;SDS011;5263;48.680;9.004;2022-11-20T02:32:22;3.50;;;2.37;;
10432;SDS011;5263;48.680;9.004;2022-11-20T02:34:50;4.10;;;2.93;;
10432;SDS011;5263;48.680;9.004;2022-11-20T02:37:16;3.03;;;2.73;;
10432;SDS011;5263;48.680;9.004;2022-11-20T02:39:43;4.03;;;2.63;;
10432;SDS011;5263;48.680;9.004;2022-11-20T02:42:11;4.73;;;3.80;;
10432;SDS011;5263;48.680;9.004;2022-11-20T02:44:36;4.37;;;3.97;;
10432;SDS011;5263;48.680;9.004;2022-11-20T02:47:02;3.73;;;3.00;;
10432;SDS011;5263;48.680;9.004;2022-11-20T02:49:28;5.07;;;3.83;;
10432;SDS011;5263;48.680;9.004;2022-11-20T02:51:53;3.17;;;2.70;;
10432;SDS011;5263;48.680;9.004;2022-11-20T02:54:19;4.67;;;3.20;;
10432;SDS011;5263;48.680;9.004;2022-11-20T02:56:45;3.83;;;3.37;;
10432;SDS011;5263;48.680;9.004;2022-11-20T02:59:10;3.97;;;3.60;;
10432;SDS011;5263;48.680;9.004;2022-11-20T03:01:36;3.50;;;3.30;;
10432;SDS011;5263;48.680;9.004;2022-11-20T03:04:01;4.57;;;2.93;;
10432;SDS011;5263;48.680;9.004;2022-11-20T03:06:27;3.57;;;3.27;;
10432;SDS011;5263;48.680;9.004;2022-11-20T03:08:53;4.00;;;3.70;;
10432;SDS011;5263;48.680;9.004;2022-11-20T03:11:19;3.83;;;3.50;;
10432;SDS011;5263;48.680;9.004;2022-11-20T03:13:45;4.60;;;4.20;;
10432;SDS011;5263;48.680;9.004;2022-11-20T03:16:15;4.73;;;4.13;;
10432;SDS011;5263;48.680;9.004;2022-11-20T03:18:42;5.53;;;4.40;;
10432;SDS011;5263;48.680;9.004;2022-11-20T03:21:09;8.17;;;4.27;;
10432;SDS011;5263;48.680;9.004;2022-11-20T03:23:36;5.10;;;4.67;;
10432;SDS011;5263;48.680;9.004;2022-11-20T03:28:49;7.43;;;4.23;;
10432;SDS011;5263;48.680;9.004;2022-11-20T03:31:26;6.23;;;4.57;;
10432;SDS011;5263;48.680;9.004;2022-11-20T03:33:54;7.67;;;3.80;;
10432;SDS011;5263;48.680;9.004;2022-11-20T03:36:20;3.77;;;3.47;;
10432;SDS011;5263;48.680;9.004;2022-11-20T03:38:46;4.67;;;3.70;;
10432;SDS011;5263;48.680;9.004;2022-11-20T03:41:14;4.23;;;3.80;;
10432;SDS011;5263;48.680;9.004;2022-11-20T03:43:51;5.50;;;3.93;;
10432;SDS011;5263;48.680;9.004;2022-11-20T03:46:18;6.10;;;3.70;;
10432;SDS011;5263;48.680;9.004;2022-11-20T03:48:45;3.60;;;3.30;;
10432;SDS011;5263;48.680;9.004;2022-11-20T03:51:21;5.30;;;3.50;;
10432;SDS011;5263;48.680;9.004;2022-11-20T03:53:55;4.17;;;3.77;;
10432;SDS011;5263;48.680;9.004;2022-11-20T03:56:23;6.20;;;3.43;;
10432;SDS011;5263;48.680;9.004;2022-11-20T03:58:57;3.43;;;3.13;;
10432;SDS011;5263;48.680;9.004;2022-11-20T04:01:30;6.30;;;3.57;;
10432;SDS011;5263;48.680;9.004;2022-11-20T04:03:58;5.53;;;3.80;;
10432;SDS011;5263;48.680;9.004;2022-11-20T04:06:28;6.07;;;3.30;;
10432;SDS011;5263;48.680;9.004;2022-11-20T04:08:55;5.77;;;3.50;;
10432;SDS011;5263;48.680;9.004;2022-11-20T04:11:23;4.93;;;3.37;;
10432;SDS011;5263;48.680;9.004;2022-11-20T04:13:51;3.23;;;2.93;;
10432;SDS011;5263;48.680;9.004;2022-11-20T04:16:18;3.50;;;3.20;;
10432;SDS011;5263;48.680;9.004;2022-11-20T04:18:44;3.10;;;2.80;;
10432;SDS011;5263;48.680;9.004;2022-11-20T04:21:10;3.10;;;2.30;;
10432;SDS011;5263;48.680;9.004;2022-11-20T04:23:36;5.53;;;2.37;;
10432;SDS011;5263;48.680;9.004;2022-11-20T04:26:09;3.67;;;2.30;;
10432;SDS011;5263;48.680;9.004;2022-11-20T04:28:36;3.50;;;2.37;;
10432;SDS011;5263;48.680;9.004;2022-11-20T04:31:06;4.60;;;3.33;;
10432;SDS011;5263;48.680;9.004;2022-11-20T04:33:34;2.40;;;2.20;;
10432;SDS011;5263;48.680;9.004;2022-11-20T04:36:05;4.57;;;2.60;;
10432;SDS011;5263;48.680;9.004;2022-11-20T04:38:44;3.63;;;2.50;;
10432;SDS011;5263;48.680;9.004;2022-11-20T04:41:16;2.70;;;2.50;;
10432;SDS011;5263;48.680;9.004;2022-11-20T04:43:47;3.43;;;3.07;;
10432;SDS011;5263;48.680;9.004;2022-11-20T04:46:13;4.20;;;2.50;;
10432;SDS011;5263;48.680;9.004;2022-11-20T04:48:39;2.93;;;2.70;;
10432;SDS011;5263;48.680;9.004;2022-11-20T04:51:05;2.60;;;2.50;;
10432;SDS011;5263;48.680;9.004;2022-11-20T04:53:31;2.50;;;2.30;;
10432;SDS011;5263;48.680;9.004;2022-11-20T04:56:04;2.67;;;2.47;;
10432;SDS011;5263;48.680;9.004;2022-11-20T04:58:31;2.93;;;2.73;;
10432;SDS011;5263;48.680;9.004;2022-11-20T05:01:04;2.57;;;2.37;;
10432;SDS011;5263;48.680;9.004;2022-11-20T05:03:32;2.53;;;2.33;;
10432;SDS011;5263;48.680;9.004;2022-11-20T05:06:04;2.70;;;2.43;;
10432;SDS011;5263;48.680;9.004;2022-11-20T05:08:31;4.20;;;2.67;;
10432;SDS011;5263;48.680;9.004;2022-11-20T05:13:53;2.60;;;2.40;;
10432;SDS011;5263;48.680;9.004;2022-11-20T05:16:21;2.53;;;2.33;;
10432;SDS011;5263;48.680;9.004;2022-11-20T05:18:48;2.67;;;2.47;;
10432;SDS011;5263;48.680;9.004;2022-11-20T05:21:14;2.50;;;2.30;;
10432;SDS011;5263;48.680;9.004;2022-11-20T05:23:40;1.80;;;1.70;;
10432;SDS011;5263;48.680;9.004;2022-11-20T05:26:07;1.50;;;1.40;;
10432;SDS011;5263;48.680;9.004;2022-11-20T05:28:37;1.80;;;1.50;;
10432;SDS011;5263;48.680;9.004;2022-11-20T05:31:04;2.53;;;2.00;;
10432;SDS011;5263;48.680;9.004;2022-11-20T05:33:31;2.10;;;1.90;;
10432;SDS011;5263;48.680;9.004;2022-11-20T05:36:00;2.30;;;1.87;;
10432;SDS011;5263;48.680;9.004;2022-11-20T05:38:27;2.70;;;2.00;;
10432;SDS011;5263;48.680;9.004;2022-11-20T05:40:52;2.50;;;1.80;;
10432;SDS011;5263;48.680;9.004;2022-11-20T05:43:18;3.60;;;1.87;;
10432;SDS011;5263;48.680;9.004;2022-11-20T05:45:51;2.20;;;2.00;;
10432;SDS011;5263;48.680;9.004;2022-11-20T05:48:20;4.03;;;2.23;;
10432;SDS011;5263;48.680;9.004;2022-11-20T05:50:46;5.47;;;2.10;;
10432;SDS011;5263;48.680;9.004;2022-11-20T05:53:12;2.67;;;1.80;;
10432;SDS011;5263;48.680;9.004;2022-11-20T05:55:38;2.40;;;1.77;;
10432;SDS011;5263;48.680;9.004;2022-11-20T05:58:03;1.60;;;1.50;;
10432;SDS011;5263;48.680;9.004;2022-11-20T06:00:29;6.13;;;1.80;;
10432;SDS011;5263;48.680;9.004;2022-11-20T06:02:55;2.90;;;1.70;;
10432;SDS011;5263;48.680;9.004;2022-11-20T06:05:20;4.93;;;2.37;;
10432;SDS011;5263;48.680;9.004;2022-11-20T06:07:46;3.13;;;1.87;;
10432;SDS011;5263;48.680;9.004;2022-11-20T06:10:11;2.00;;;1.73;;
10432;SDS011;5263;48.680;9.004;2022-11-20T06:12:37;5.10;;;2.17;;
10432;SDS011;5263;48.680;9.004;2022-11-20T06:15:03;2.23;;;1.33;;
10432;SDS011;5263;48.680;9.004;2022-11-20T06:17:30;4.43;;;1.73;;
10432;SDS011;5263;48.680;9.004;2022-11-20T06:19:55;2.87;;;1.80;;
10432;SDS011;5263;48.680;9.004;2022-11-20T06:22:21;1.67;;;1.57;;
10432;SDS011;5263;48.680;9.004;2022-11-20T06:24:47;2.50;;;1.60;;
10432;SDS011;5263;48.680;9.004;2022-11-20T06:27:12;1.53;;;1.43;;
10432;SDS011;5263;48.680;9.004;2022-11-20T06:29:38;4.13;;;1.13;;
10432;SDS011;5263;48.680;9.004;2022-11-20T06:32:04;1.40;;;1.23;;
10432;SDS011;5263;48.680;9.004;2022-11-20T06:34:29;2.53;;;1.43;;
10432;SDS011;5263;48.680;9.004;2022-11-20T06:36:55;2.00;;;1.33;;
10432;SDS011;5263;48.680;9.004;2022-11-20T06:39:20;2.80;;;1.17;;
10432;SDS011;5263;48.680;9.004;2022-11-20T06:41:46;1.20;;;1.10;;
10432;SDS011;5263;48.680;9.004;2022-11-20T06:44:11;2.13;;;1.40;;
10432;SDS011;5263;48.680;9.004;2022-11-20T06:46:37;2.93;;;1.47;;
10432;SDS011;5263;48.680;9.004;2022-11-20T06:49:02;3.70;;;1.47;;
10432;SDS011;5263;48.680;9.004;2022-11-20T06:51:28;1.40;;;1.30;;
10432;SDS011;5263;48.680;9.004;2022-11-20T06:53:54;1.23;;;1.17;;
10432;SDS011;5263;48.680;9.004;2022-11-20T06:56:19;1.13;;;1.03;;
10432;SDS011;5263;48.680;9.004;2022-11-20T06:58:45;2.73;;;1.10;;
10432;SDS011;5263;48.680;9.004;2022-11-20T07:01:12;1.30;;;1.20;;
10432;SDS011;5263;48.680;9.004;2022-11-20T07:03:39;1.80;;;1.10;;
10432;SDS011;5263;48.680;9.004;2022-11-20T07:06:05;3.87;;;1.43;;
10432;SDS011;5263;48.680;9.004;2022-11-20T07:08:32;1.10;;;1.00;;
10432;SDS011;5263;48.680;9.004;2022-11-20T07:10:58;1.17;;;1.13;;
10432;SDS011;5263;48.680;9.004;2022-11-20T07:13:29;1.37;;;0.80;;
10432;SDS011;5263;48.680;9.004;2022-11-20T07:15:54;2.47;;;0.97;;
10432;SDS011;5263;48.680;9.004;2022-11-20T07:18:23;1.20;;;0.90;;
10432;SDS011;5263;48.680;9.004;2022-11-20T07:20:49;1.23;;;0.90;;
10432;SDS011;5263;48.680;9.004;2022-11-20T07:23:15;2.30;;;0.90;;
10432;SDS011;5263;48.680;9.004;2022-11-20T07:25:40;2.73;;;1.27;;
10432;SDS011;5263;48.680;9.004;2022-11-20T07:28:06;1.00;;;0.90;;
10432;SDS011;5263;48.680;9.004;2022-11-20T07:30:31;1.30;;;1.20;;
10432;SDS011;5263;48.680;9.004;2022-11-20T07:32:57;1.13;;;1.03;;
10432;SDS011;5263;48.680;9.004;2022-11-20T07:35:23;1.17;;;1.07;;
10432;SDS011;5263;48.680;9.004;2022-11-20T07:37:50;1.50;;;1.17;;
10432;SDS011;5263;48.680;9.004;2022-11-20T07:40:16;0.67;;;0.67;;
10432;SDS011;5263;48.680;9.004;2022-11-20T07:42:48;0.90;;;0.90;;
10432;SDS011;5263;48.680;9.004;2022-11-20T07:45:15;0.80;;;0.80;;
10432;SDS011;5263;48.680;9.004;2022-11-20T07:47:41;1.10;;;1.00;;
10432;SDS011;5263;48.680;9.004;2022-11-20T07:50:07;1.00;;;0.70;;
10432;SDS011;5263;48.680;9.004;2022-11-20T07:52:33;0.93;;;0.70;;
10432;SDS011;5263;48.680;9.004;2022-11-20T07:54:58;0.70;;;0.70;;
10432;SDS011;5263;48.680;9.004;2022-11-20T07:57:24;1.00;;;0.90;;
10432;SDS011;5263;48.680;9.004;2022-11-20T07:59:49;1.27;;;0.63;;
10432;SDS011;5263;48.680;9.004;2022-11-20T08:02:15;1.03;;;0.70;;
10432;SDS011;5263;48.680;9.004;2022-11-20T08:04:40;1.67;;;0.63;;
10432;SDS011;5263;48.680;9.004;2022-11-20T08:07:06;1.90;;;0.70;;
10432;SDS011;5263;48.680;9.004;2022-11-20T08:09:32;0.80;;;0.80;;
10432;SDS011;5263;48.680;9.004;2022-11-20T08:11:57;0.87;;;0.80;;
10432;SDS011;5263;48.680;9.004;2022-11-20T08:14:41;0.80;;;0.80;;
10432;SDS011;5263;48.680;9.004;2022-11-20T08:17:07;1.40;;;0.70;;
10432;SDS011;5263;48.680;9.004;2022-11-20T08:19:32;0.80;;;0.80;;
10432;SDS011;5263;48.680;9.004;2022-11-20T08:21:58;1.57;;;1.00;;
10432;SDS011;5263;48.680;9.004;2022-11-20T08:24:23;1.00;;;0.90;;
10432;SDS011;5263;48.680;9.004;2022-11-20T08:26:51;1.80;;;0.90;;
10432;SDS011;5263;48.680;9.004;2022-11-20T08:29:17;1.23;;;0.90;;
10432;SDS011;5263;48.680;9.004;2022-11-20T08:31:43;1.23;;;0.80;;
10432;SDS011;5263;48.680;9.004;2022-11-20T08:34:09;1.80;;;1.10;;
10432;SDS011;5263;48.680;9.004;2022-11-20T08:36:35;1.13;;;0.90;;
10432;SDS011;5263;48.680;9.004;2022-11-20T08:39:02;1.93;;;0.83;;
10432;SDS011;5263;48.680;9.004;2022-11-20T08:41:28;0.80;;;0.80;;
10432;SDS011;5263;48.680;9.004;2022-11-20T08:44:01;0.70;;;0.70;;
10432;SDS011;5263;48.680;9.004;2022-11-20T08:46:31;0.60;;;0.60;;
10432;SDS011;5263;48.680;9.004;2022-11-20T08:49:06;0.80;;;0.60;;
10432;SDS011;5263;48.680;9.004;2022-11-20T08:51:33;4.77;;;0.60;;
10432;SDS011;5263;48.680;9.004;2022-11-20T08:53:58;1.60;;;0.60;;
10432;SDS011;5263;48.680;9.004;2022-11-20T08:56:24;0.80;;;0.70;;
10432;SDS011;5263;48.680;9.004;2022-11-20T08:58:50;0.57;;;0.57;;
10432;SDS011;5263;48.680;9.004;2022-11-20T09:01:19;1.87;;;0.87;;
10432;SDS011;5263;48.680;9.004;2022-11-20T09:03:46;0.50;;;0.50;;
10432;SDS011;5263;48.680;9.004;2022-11-20T09:06:12;0.40;;;0.40;;
10432;SDS011;5263;48.680;9.004;2022-11-20T09:08:38;1.40;;;0.53;;
10432;SDS011;5263;48.680;9.004;2022-11-20T09:11:04;1.70;;;0.57;;
10432;SDS011;5263;48.680;9.004;2022-11-20T09:13:31;0.40;;;0.40;;
10432;SDS011;5263;48.680;9.004;2022-11-20T09:15:58;0.50;;;0.40;;
10432;SDS011;5263;48.680;9.004;2022-11-20T09:18:32;0.50;;;0.50;;
10432;SDS011;5263;48.680;9.004;2022-11-20T09:21:01;0.47;;;0.30;;
10432;SDS011;5263;48.680;9.004;2022-11-20T09:23:33;0.40;;;0.40;;
10432;SDS011;5263;48.680;9.004;2022-11-20T09:26:18;0.40;;;0.40;;
10432;SDS011;5263;48.680;9.004;2022-11-20T09:28:44;0.40;;;0.40;;
10432;SDS011;5263;48.680;9.004;2022-11-20T09:31:22;1.27;;;0.50;;
10432;SDS011;5263;48.680;9.004;2022-11-20T09:33:50;0.30;;;0.30;;
10432;SDS011;5263;48.680;9.004;2022-11-20T09:36:18;1.40;;;0.30;;
10432;SDS011;5263;48.680;9.004;2022-11-20T09:38:47;0.97;;;0.30;;
10432;SDS011;5263;48.680;9.004;2022-11-20T09:41:25;0.27;;;0.20;;
10432;SDS011;5263;48.680;9.004;2022-11-20T09:55:10;5.27;;;0.27;;
10432;SDS011;5263;48.680;9.004;2022-11-20T09:57:43;0.40;;;0.10;;
10432;SDS011;5263;48.680;9.004;2022-11-20T10:00:13;1.07;;;0.20;;
10432;SDS011;5263;48.680;9.004;2022-11-20T10:05:45;0.20;;;0.20;;
10432;SDS011;5263;48.680;9.004;2022-11-20T10:10:46;0.10;;;0.10;;
10432;SDS011;5263;48.680;9.004;2022-11-20T10:13:36;0.10;;;0.10;;
10432;SDS011;5263;48.680;9.004;2022-11-20T10:18:59;0.20;;;0.20;;
10432;SDS011;5263;48.680;9.004;2022-11-20T10:24:34;0.20;;;0.20;;
10432;SDS011;5263;48.680;9.004;2022-11-20T10:29:46;0.23;;;0.23;;
10432;SDS011;5263;48.680;9.004;2022-11-20T10:32:29;2.53;;;0.20;;
10432;SDS011;5263;48.680;9.004;2022-11-20T10:35:05;0.30;;;0.20;;
10432;SDS011;5263;48.680;9.004;2022-11-20T10:37:41;0.20;;;0.20;;
10432;SDS011;5263;48.680;9.004;2022-11-20T10:42:55;0.43;;;0.37;;
10432;SDS011;5263;48.680;9.004;2022-11-20T10:48:10;4.90;;;0.50;;
10432;SDS011;5263;48.680;9.004;2022-11-20T10:51:47;0.43;;;0.43;;
10432;SDS011;5263;48.680;9.004;2022-11-20T10:56:43;0.40;;;0.40;;
10432;SDS011;5263;48.680;9.004;2022-11-20T11:01:56;0.47;;;0.47;;
10432;SDS011;5263;48.680;9.004;2022-11-20T11:09:53;1.53;;;0.40;;
10432;SDS011;5263;48.680;9.004;2022-11-20T11:12:28;0.40;;;0.40;;
10432;SDS011;5263;48.680;9.004;2022-11-20T11:14:55;0.87;;;0.40;;
10432;SDS011;5263;48.680;9.004;2022-11-20T11:17:32;2.10;;;0.40;;
10432;SDS011;5263;48.680;9.004;2022-11-20T11:22:28;0.47;;;0.30;;
10432;SDS011;5263;48.680;9.004;2022-11-20T11:24:55;0.93;;;0.30;;
10432;SDS011;5263;48.680;9.004;2022-11-20T11:27:21;1.57;;;0.47;;
10432;SDS011;5263;48.680;9.004;2022-11-20T11:29:46;6.00;;;3.60;;
10432;SDS011;5263;48.680;9.004;2022-11-20T11:32:17;0.77;;;0.40;;
10432;SDS011;5263;48.680;9.004;2022-11-20T11:34:57;1.90;;;0.80;;
10432;SDS011;5263;48.680;9.004;2022-11-20T11:37:32;0.80;;;0.30;;
10432;SDS011;5263;48.680;9.004;2022-11-20T11:40:00;1.20;;;0.40;;
10432;SDS011;5263;48.680;9.004;2022-11-20T11:42:26;0.40;;;0.30;;
10432;SDS011;5263;48.680;9.004;2022-11-20T11:44:53;0.93;;;0.20;;
10432;SDS011;5263;48.680;9.004;2022-11-20T12:03:27;0.37;;;0.20;;
10432;SDS011;5263;48.680;9.004;2022-11-20T12:05:58;1.43;;;0.40;;
10432;SDS011;5263;48.680;9.004;2022-11-20T12:08:44;0.50;;;0.30;;
10432;SDS011;5263;48.680;9.004;2022-11-20T12:13:49;0.50;;;0.23;;
10432;SDS011;5263;48.680;9.004;2022-11-20T12:16:35;0.40;;;0.20;;
10432;SDS011;5263;48.680;9.004;2022-11-20T12:19:04;1.73;;;0.30;;
10432;SDS011;5263;48.680;9.004;2022-11-20T12:21:50;1.13;;;0.73;;
10432;SDS011;5263;48.680;9.004;2022-11-20T12:24:30;0.20;;;0.10;;
10432;SDS011;5263;48.680;9.004;2022-11-20T12:27:13;0.97;;;0.47;;
10432;SDS011;5263;48.680;9.004;2022-11-20T12:40:26;0.53;;;0.20;;
10432;SDS011;5263;48.680;9.004;2022-11-20T12:43:19;1.47;;;0.30;;
10432;SDS011;5263;48.680;9.004;2022-11-20T12:56:50;2.20;;;0.20;;
10432;SDS011;5263;48.680;9.004;2022-11-20T13:07:24;2.63;;;0.20;;
10432;SDS011;5263;48.680;9.004;2022-11-20T13:09:52;2.50;;;0.20;;
10432;SDS011;5263;48.680;9.004;2022-11-20T13:17:36;4.00;;;0.30;;
10432;SDS011;5263;48.680;9.004;2022-11-20T13:20:18;0.57;;;0.20;;
10432;SDS011;5263;48.680;9.004;2022-11-20T13:22:45;1.90;;;0.30;;
10432;SDS011;5263;48.680;9.004;2022-11-20T13:25:26;0.80;;;0.20;;
10432;SDS011;5263;48.680;9.004;2022-11-20T13:27:52;1.27;;;0.23;;
10432;SDS011;5263;48.680;9.004;2022-11-20T13:30:20;0.53;;;0.53;;
10432;SDS011;5263;48.680;9.004;2022-11-20T13:32:51;1.10;;;0.43;;
10432;SDS011;5263;48.680;9.004;2022-11-20T13:35:29;3.53;;;0.30;;
10432;SDS011;5263;48.680;9.004;2022-11-20T13:38:00;1.47;;;0.40;;
10432;SDS011;5263;48.680;9.004;2022-11-20T13:40:31;1.17;;;0.20;;
10432;SDS011;5263;48.680;9.004;2022-11-20T13:43:04;1.80;;;0.40;;
10432;SDS011;5263;48.680;9.004;2022-11-20T13:45:39;0.83;;;0.33;;
10432;SDS011;5263;48.680;9.004;2022-11-20T13:48:16;1.07;;;0.50;;
10432;SDS011;5263;48.680;9.004;2022-11-20T13:50:53;0.70;;;0.40;;
10432;SDS011;5263;48.680;9.004;2022-11-20T13:56:10;0.83;;;0.40;;
10432;SDS011;5263;48.680;9.004;2022-11-20T13:58:49;1.10;;;0.30;;
10432;SDS011;5263;48.680;9.004;2022-11-20T14:01:21;0.30;;;0.20;;
10432;SDS011;5263;48.680;9.004;2022-11-20T14:03:49;1.57;;;0.37;;
10432;SDS011;5263;48.680;9.004;2022-11-20T14:06:20;2.23;;;0.33;;
10432;SDS011;5263;48.680;9.004;2022-11-20T14:08:56;0.60;;;0.20;;
10432;SDS011;5263;48.680;9.004;2022-11-20T14:11:24;0.77;;;0.40;;
10432;SDS011;5263;48.680;9.004;2022-11-20T14:16:23;0.40;;;0.40;;
10432;SDS011;5263;48.680;9.004;2022-11-20T14:18:49;2.17;;;0.40;;
10432;SDS011;5263;48.680;9.004;2022-11-20T14:21:22;1.93;;;0.40;;
10432;SDS011;5263;48.680;9.004;2022-11-20T14:24:03;1.90;;;0.30;;
10432;SDS011;5263;48.680;9.004;2022-11-20T14:26:41;0.53;;;0.43;;
10432;SDS011;5263;48.680;9.004;2022-11-20T14:29:16;1.07;;;0.50;;
10432;SDS011;5263;48.680;9.004;2022-11-20T14:31:44;0.93;;;0.40;;
10432;SDS011;5263;48.680;9.004;2022-11-20T14:34:15;0.50;;;0.40;;
10432;SDS011;5263;48.680;9.004;2022-11-20T14:36:46;1.33;;;0.40;;
10432;SDS011;5263;48.680;9.004;2022-11-20T14:39:12;1.50;;;0.50;;
10432;SDS011;5263;48.680;9.004;2022-11-20T14:41:52;2.00;;;0.70;;
10432;SDS011;5263;48.680;9.004;2022-11-20T14:44:20;3.57;;;0.60;;
10432;SDS011;5263;48.680;9.004;2022-11-20T14:46:52;0.60;;;0.40;;
10432;SDS011;5263;48.680;9.004;2022-11-20T14:49:19;0.97;;;0.60;;
10432;SDS011;5263;48.680;9.004;2022-11-20T14:51:45;2.67;;;0.40;;
10432;SDS011;5263;48.680;9.004;2022-11-20T14:54:15;0.77;;;0.50;;
10432;SDS011;5263;48.680;9.004;2022-11-20T14:56:41;0.40;;;0.40;;
10432;SDS011;5263;48.680;9.004;2022-11-20T14:59:07;0.93;;;0.43;;
10432;SDS011;5263;48.680;9.004;2022-11-20T15:01:34;3.13;;;0.50;;
10432;SDS011;5263;48.680;9.004;2022-11-20T15:04:10;0.50;;;0.30;;
10432;SDS011;5263;48.680;9.004;2022-11-20T15:06:36;1.10;;;0.40;;
10432;SDS011;5263;48.680;9.004;2022-11-20T15:09:03;0.57;;;0.30;;
10432;SDS011;5263;48.680;9.004;2022-11-20T15:11:31;1.50;;;0.40;;
10432;SDS011;5263;48.680;9.004;2022-11-20T15:14:03;2.73;;;0.40;;
10432;SDS011;5263;48.680;9.004;2022-11-20T15:16:31;1.80;;;0.40;;
10432;SDS011;5263;48.680;9.004;2022-11-20T15:18:57;0.50;;;0.50;;
10432;SDS011;5263;48.680;9.004;2022-11-20T15:21:24;0.97;;;0.30;;
10432;SDS011;5263;48.680;9.004;2022-11-20T15:23:49;1.60;;;0.30;;
10432;SDS011;5263;48.680;9.004;2022-11-20T15:26:18;1.03;;;0.60;;
10432;SDS011;5263;48.680;9.004;2022-11-20T15:28:49;0.30;;;0.30;;
10432;SDS011;5263;48.680;9.004;2022-11-20T15:31:16;0.83;;;0.30;;
10432;SDS011;5263;48.680;9.004;2022-11-20T15:33:43;1.53;;;0.40;;
10432;SDS011;5263;48.680;9.004;2022-11-20T15:36:09;0.97;;;0.37;;
10432;SDS011;5263;48.680;9.004;2022-11-20T15:38:35;0.53;;;0.30;;
10432;SDS011;5263;48.680;9.004;2022-11-20T15:41:01;3.73;;;0.60;;
10432;SDS011;5263;48.680;9.004;2022-11-20T15:43:27;1.37;;;0.70;;
10432;SDS011;5263;48.680;9.004;2022-11-20T15:45:57;1.43;;;0.60;;
10432;SDS011;5263;48.680;9.004;2022-11-20T15:48:27;4.33;;;0.50;;
10432;SDS011;5263;48.680;9.004;2022-11-20T15:53:23;0.63;;;0.50;;
10432;SDS011;5263;48.680;9.004;2022-11-20T15:55:49;0.90;;;0.63;;
10432;SDS011;5263;48.680;9.004;2022-11-20T15:58:14;0.50;;;0.50;;
10432;SDS011;5263;48.680;9.004;2022-11-20T16:00:42;4.10;;;0.77;;
10432;SDS011;5263;48.680;9.004;2022-11-20T16:03:11;2.10;;;0.60;;
10432;SDS011;5263;48.680;9.004;2022-11-20T16:05:38;0.50;;;0.50;;
10432;SDS011;5263;48.680;9.004;2022-11-20T16:08:04;1.00;;;0.40;;
10432;SDS011;5263;48.680;9.004;2022-11-20T16:10:30;1.37;;;0.60;;
10432;SDS011;5263;48.680;9.004;2022-11-20T16:12:55;1.23;;;0.50;;
10432;SDS011;5263;48.680;9.004;2022-11-20T16:15:39;3.47;;;0.70;;
10432;SDS011;5263;48.680;9.004;2022-11-20T16:18:11;1.63;;;0.50;;
10432;SDS011;5263;48.680;9.004;2022-11-20T16:20:39;0.70;;;0.60;;
10432;SDS011;5263;48.680;9.004;2022-11-20T16:23:05;0.90;;;0.50;;
10432;SDS011;5263;48.680;9.004;2022-11-20T16:25:31;1.60;;;0.60;;
10432;SDS011;5263;48.680;9.004;2022-11-20T16:27:57;2.63;;;0.40;;
10432;SDS011;5263;48.680;9.004;2022-11-20T16:30:23;0.90;;;0.60;;
10432;SDS011;5263;48.680;9.004;2022-11-20T16:32:48;1.00;;;0.80;;
10432;SDS011;5263;48.680;9.004;2022-11-20T16:35:14;1.37;;;0.70;;
10432;SDS011;5263;48.680;9.004;2022-11-20T16:37:40;0.70;;;0.50;;
10432;SDS011;5263;48.680;9.004;2022-11-20T16:40:07;1.10;;;1.00;;
10432;SDS011;5263;48.680;9.004;2022-11-20T16:42:33;1.50;;;0.50;;
10432;SDS011;5263;48.680;9.004;2022-11-20T16:44:59;1.33;;;0.50;;
10432;SDS011;5263;48.680;9.004;2022-11-20T16:47:25;2.77;;;0.60;;
10432;SDS011;5263;48.680;9.004;2022-11-20T16:49:51;1.03;;;0.70;;
10432;SDS011;5263;48.680;9.004;2022-11-20T16:52:16;3.17;;;0.60;;
10432;SDS011;5263;48.680;9.004;2022-11-20T16:54:42;0.60;;;0.60;;
10432;SDS011;5263;48.680;9.004;2022-11-20T16:57:07;1.70;;;0.50;;
10432;SDS011;5263;48.680;9.004;2022-11-20T16:59:33;1.90;;;0.57;;
10432;SDS011;5263;48.680;9.004;2022-11-20T17:01:58;0.80;;;0.60;;
10432;SDS011;5263;48.680;9.004;2022-11-20T17:04:24;0.77;;;0.47;;
10432;SDS011;5263;48.680;9.004;2022-11-20T17:06:50;0.73;;;0.50;;
10432;SDS011;5263;48.680;9.004;2022-11-20T17:09:15;1.60;;;0.50;;